createdAt,value
2022-09-14T00:00:30.864Z,96.14
2022-09-14T00:02:57.529Z,96.07
2022-09-14T00:05:24.074Z,95.77
2022-09-14T00:07:50.798Z,94.88
2022-09-14T00:10:17.292Z,94.36
2022-09-14T00:12:43.670Z,95.45
2022-09-14T00:15:10.297Z,95.94
2022-09-14T00:17:36.738Z,96.97
2022-09-14T00:20:03.518Z,96.57
2022-09-14T00:22:31.060Z,96.75
2022-09-14T00:24:57.540Z,96.38
2022-09-14T00:27:23.926Z,96.60
2022-09-14T00:29:50.447Z,95.68
2022-09-14T00:32:16.958Z,96.11
2022-09-14T00:34:43.381Z,97.57
2022-09-14T00:37:11.555Z,96.99
2022-09-14T00:39:38.023Z,97.96
2022-09-14T00:42:05.673Z,97.55
2022-09-14T00:44:32.054Z,98.30
2022-09-14T00:47:00.878Z,97.46
2022-09-14T00:49:34.448Z,98.02
2022-09-14T00:52:11.109Z,97.67
2022-09-14T00:54:51.342Z,97.57
2022-09-14T00:57:18.869Z,96.25
2022-09-14T00:59:48.141Z,96.51
2022-09-14T01:02:15.407Z,97.07
2022-09-14T01:04:43.448Z,95.80
2022-09-14T01:07:42.284Z,93.47
2022-09-14T01:10:52.018Z,95.69
2022-09-14T01:13:22.900Z,95.50
2022-09-14T01:16:07.925Z,96.81
2022-09-14T01:18:45.912Z,97.65
2022-09-14T01:21:20.535Z,97.47
2022-09-14T01:24:06.059Z,96.75
2022-09-14T01:26:35.872Z,96.76
2022-09-14T01:29:54.825Z,99.82
2022-09-14T01:32:42.221Z,97.71
2022-09-14T01:35:30.724Z,98.40
2022-09-14T01:38:20.642Z,97.95
2022-09-14T01:40:52.589Z,96.87
2022-09-14T01:43:36.226Z,98.36
2022-09-14T01:46:26.862Z,97.53
2022-09-14T01:49:09.692Z,95.76
2022-09-14T01:51:45.711Z,96.01
2022-09-14T01:54:27.603Z,98.72
2022-09-14T01:57:02.823Z,99.64
2022-09-14T01:59:34.218Z,99.46
2022-09-14T02:02:21.005Z,99.42
2022-09-14T02:04:53.301Z,100.00
2022-09-14T02:07:20.653Z,100.00
2022-09-14T02:09:48.819Z,100.00
2022-09-14T02:12:16.458Z,100.00
2022-09-14T02:14:46.999Z,98.53
2022-09-14T02:17:14.106Z,98.00
2022-09-14T02:19:47.489Z,97.52
2022-09-14T02:22:14.021Z,97.36
2022-09-14T02:24:40.682Z,97.78
2022-09-14T02:27:07.874Z,100.00
2022-09-14T02:29:35.246Z,100.00
2022-09-14T02:32:14.705Z,100.00
2022-09-14T02:34:49.756Z,100.00
2022-09-14T02:37:26.938Z,99.85
2022-09-14T02:40:12.270Z,100.00
2022-09-14T02:42:53.300Z,99.41
2022-09-14T02:45:39.084Z,99.12
2022-09-14T02:48:21.378Z,100.00
2022-09-14T02:51:06.589Z,100.00
2022-09-14T02:53:45.317Z,100.00
2022-09-14T02:56:13.651Z,100.00
2022-09-14T02:58:45.470Z,100.00
2022-09-14T03:01:18.811Z,100.00
2022-09-14T03:03:45.418Z,100.00
2022-09-14T03:06:12.135Z,100.00
2022-09-14T03:08:39.036Z,100.00
2022-09-14T03:11:06.535Z,100.00
2022-09-14T03:13:34.642Z,100.00
2022-09-14T03:16:13.798Z,100.00
2022-09-14T03:18:40.968Z,100.00
2022-09-14T03:21:14.453Z,100.00
2022-09-14T03:23:44.769Z,100.00
2022-09-14T03:26:21.203Z,100.00
2022-09-14T03:28:52.290Z,100.00
2022-09-14T03:31:19.186Z,100.00
2022-09-14T03:33:45.636Z,99.51
2022-09-14T03:36:14.839Z,100.00
2022-09-14T03:38:46.290Z,100.00
2022-09-14T03:41:13.560Z,100.00
2022-09-14T03:43:40.842Z,100.00
2022-09-14T03:46:09.278Z,100.00
2022-09-14T03:48:35.825Z,100.00
2022-09-14T03:51:04.391Z,100.00
2022-09-14T03:53:31.310Z,100.00
2022-09-14T03:55:58.154Z,100.00
2022-09-14T03:58:25.166Z,100.00
2022-09-14T04:00:51.654Z,100.00
2022-09-14T04:03:18.523Z,100.00
2022-09-14T04:05:55.438Z,100.00
2022-09-14T04:08:22.458Z,100.00
2022-09-14T04:10:49.210Z,100.00
2022-09-14T04:13:15.761Z,100.00
2022-09-14T04:15:42.185Z,100.00
2022-09-14T04:18:08.703Z,100.00
2022-09-14T04:20:35.431Z,100.00
2022-09-14T04:23:01.827Z,100.00
2022-09-14T04:25:28.324Z,100.00
2022-09-14T04:28:16.833Z,100.00
2022-09-14T04:30:41.113Z,100.00
2022-09-14T04:33:07.689Z,100.00
2022-09-14T04:35:34.112Z,100.00
2022-09-14T04:38:00.521Z,100.00
2022-09-14T04:40:28.774Z,100.00
2022-09-14T04:42:55.219Z,100.00
2022-09-14T04:45:21.704Z,100.00
2022-09-14T04:47:48.387Z,100.00
2022-09-14T04:50:15.239Z,100.00
2022-09-14T04:52:41.733Z,100.00
2022-09-14T04:55:08.469Z,100.00
2022-09-14T04:57:34.885Z,100.00
2022-09-14T05:00:01.488Z,100.00
2022-09-14T05:02:30.915Z,100.00
2022-09-14T05:04:58.868Z,100.00
2022-09-14T05:07:25.302Z,100.00
2022-09-14T05:09:51.772Z,100.00
2022-09-14T05:12:18.211Z,100.00
2022-09-14T05:14:44.639Z,100.00
2022-09-14T05:17:11.243Z,100.00
2022-09-14T05:19:37.725Z,100.00
2022-09-14T05:22:04.206Z,100.00
2022-09-14T05:24:30.672Z,100.00
2022-09-14T05:27:00.967Z,100.00
2022-09-14T05:29:29.647Z,100.00
2022-09-14T05:31:56.206Z,100.00
2022-09-14T05:34:22.672Z,100.00
2022-09-14T05:36:49.130Z,100.00
2022-09-14T05:39:18.666Z,100.00
2022-09-14T05:41:50.030Z,100.00
2022-09-14T05:44:17.315Z,100.00
2022-09-14T05:46:43.726Z,100.00
2022-09-14T05:49:10.193Z,100.00
2022-09-14T05:51:36.937Z,100.00
2022-09-14T05:54:09.266Z,100.00
2022-09-14T05:56:35.660Z,100.00
2022-09-14T05:59:02.194Z,100.00
2022-09-14T06:01:31.087Z,100.00
2022-09-14T06:04:00.410Z,100.00
2022-09-14T06:06:26.860Z,100.00
2022-09-14T06:08:55.069Z,100.00
2022-09-14T06:11:28.566Z,100.00
2022-09-14T06:13:55.919Z,100.00
2022-09-14T06:16:23.881Z,100.00
2022-09-14T06:18:51.055Z,100.00
2022-09-14T06:21:20.067Z,100.00
2022-09-14T06:23:48.148Z,100.00
2022-09-14T06:26:15.316Z,100.00
2022-09-14T06:28:42.361Z,100.00
2022-09-14T06:31:12.450Z,100.00
2022-09-14T06:33:43.871Z,100.00
2022-09-14T06:36:12.675Z,100.00
2022-09-14T06:38:40.474Z,100.00
2022-09-14T06:41:09.150Z,100.00
2022-09-14T06:43:41.394Z,100.00
2022-09-14T06:46:19.341Z,100.00
2022-09-14T06:48:47.259Z,100.00
2022-09-14T06:51:16.940Z,100.00
2022-09-14T06:53:44.092Z,100.00
2022-09-14T06:56:11.724Z,100.00
2022-09-14T06:58:38.486Z,100.00
2022-09-14T07:01:10.806Z,100.00
2022-09-14T07:03:38.807Z,100.00
2022-09-14T07:06:10.670Z,100.00
2022-09-14T07:08:38.807Z,100.00
2022-09-14T07:11:06.980Z,100.00
2022-09-14T07:13:34.008Z,100.00
2022-09-14T07:16:00.578Z,100.00
2022-09-14T07:18:31.837Z,100.00
2022-09-14T07:21:13.837Z,100.00
2022-09-14T07:23:43.028Z,100.00
2022-09-14T07:26:13.816Z,100.00
2022-09-14T07:28:41.161Z,100.00
2022-09-14T07:31:17.649Z,100.00
2022-09-14T07:33:45.198Z,100.00
2022-09-14T07:36:12.879Z,100.00
2022-09-14T07:38:54.797Z,100.00
2022-09-14T07:41:24.304Z,100.00
2022-09-14T07:43:52.504Z,100.00
2022-09-14T07:46:20.397Z,100.00
2022-09-14T07:48:47.565Z,100.00
2022-09-14T07:51:14.801Z,100.00
2022-09-14T07:53:42.961Z,100.00
2022-09-14T07:56:11.145Z,97.14
2022-09-14T07:58:37.810Z,97.01
2022-09-14T08:01:08.378Z,99.42
2022-09-14T08:03:40.113Z,98.93
2022-09-14T08:06:13.027Z,97.90
2022-09-14T08:08:41.879Z,97.24
2022-09-14T08:11:22.427Z,95.64
2022-09-14T08:13:54.450Z,94.48
2022-09-14T08:16:22.457Z,94.00
2022-09-14T08:18:54.372Z,95.36
2022-09-14T08:21:21.263Z,97.57
2022-09-14T08:23:47.718Z,94.32
2022-09-14T08:26:16.920Z,93.11
2022-09-14T08:28:43.753Z,94.73
2022-09-14T08:31:13.353Z,98.17
2022-09-14T08:33:42.928Z,99.80
2022-09-14T08:36:11.356Z,100.00
2022-09-14T08:38:38.203Z,99.52
2022-09-14T08:41:19.015Z,100.00
2022-09-14T08:43:45.706Z,100.00
2022-09-14T08:46:37.991Z,100.00
2022-09-14T08:49:19.138Z,100.00
2022-09-14T08:51:46.015Z,100.00
2022-09-14T08:54:12.666Z,100.00
2022-09-14T08:56:48.230Z,100.00
2022-09-14T08:59:33.147Z,100.00
2022-09-14T09:02:08.582Z,100.00
2022-09-14T09:04:56.908Z,100.00
2022-09-14T09:07:46.347Z,100.00
2022-09-14T09:10:13.852Z,100.00
2022-09-14T09:12:46.169Z,100.00
2022-09-14T09:15:22.740Z,100.00
2022-09-14T09:17:55.529Z,100.00
2022-09-14T09:20:29.089Z,100.00
2022-09-14T09:23:16.898Z,100.00
2022-09-14T09:26:21.693Z,100.00
2022-09-14T09:28:52.235Z,100.00
2022-09-14T09:31:23.115Z,100.00
2022-09-14T09:33:50.798Z,97.93
2022-09-14T09:36:18.376Z,100.00
2022-09-14T09:38:44.777Z,99.13
2022-09-14T09:41:24.082Z,97.52
2022-09-14T09:43:58.320Z,94.50
2022-09-14T09:46:24.992Z,91.98
2022-09-14T09:48:52.287Z,89.83
2022-09-14T09:51:24.751Z,90.14
2022-09-14T09:54:08.286Z,90.21
2022-09-14T09:56:39.241Z,89.68
2022-09-14T09:59:26.908Z,85.53
2022-09-14T10:01:56.350Z,85.05
2022-09-14T10:04:28.797Z,88.40
2022-09-14T10:06:57.748Z,89.42
2022-09-14T10:09:29.650Z,86.98
2022-09-14T10:12:00.152Z,85.17
2022-09-14T10:14:31.878Z,84.79
2022-09-14T10:17:05.790Z,84.71
2022-09-14T10:19:33.546Z,84.00
2022-09-14T10:22:26.250Z,88.34
2022-09-14T10:25:14.702Z,90.86
2022-09-14T10:27:41.340Z,89.19
2022-09-14T10:30:25.397Z,93.77
2022-09-14T10:33:02.060Z,91.29
2022-09-14T10:35:52.865Z,92.88
2022-09-14T10:38:41.661Z,95.54
2022-09-14T10:41:31.554Z,96.32
2022-09-14T10:44:21.586Z,98.58
2022-09-14T10:47:10.126Z,99.58
2022-09-14T10:50:02.251Z,97.79
2022-09-14T10:52:47.498Z,97.88
2022-09-14T10:55:42.093Z,98.31
2022-09-14T10:58:18.051Z,96.44
2022-09-14T11:01:08.497Z,89.85
2022-09-14T11:03:53.523Z,93.63
2022-09-14T11:06:44.063Z,89.88
2022-09-14T11:09:38.488Z,95.63
2022-09-14T11:12:18.779Z,95.68
2022-09-14T11:14:53.192Z,96.92
2022-09-14T11:17:33.558Z,91.02
2022-09-14T11:20:42.444Z,91.21
2022-09-14T11:23:40.040Z,87.72
2022-09-14T11:26:16.920Z,86.43
2022-09-14T11:28:51.699Z,89.48
2022-09-14T11:31:28.976Z,88.59
2022-09-14T11:34:01.608Z,86.05
2022-09-14T11:36:44.495Z,85.93
2022-09-14T11:39:19.841Z,86.68
2022-09-14T11:41:53.172Z,86.34
2022-09-14T11:44:24.912Z,85.26
2022-09-14T11:47:09.693Z,85.18
2022-09-14T11:49:55.599Z,84.98
2022-09-14T11:52:27.820Z,83.50
2022-09-14T11:54:55.000Z,83.97
2022-09-14T11:57:27.078Z,86.78
2022-09-14T11:59:55.940Z,88.83
2022-09-14T12:02:22.337Z,87.53
2022-09-14T12:05:06.958Z,85.91
2022-09-14T12:07:43.551Z,83.56
2022-09-14T12:10:15.943Z,85.16
2022-09-14T12:12:49.074Z,83.94
2022-09-14T12:15:23.212Z,82.86
2022-09-14T12:17:51.361Z,82.83
2022-09-14T12:20:33.941Z,84.44
2022-09-14T12:23:15.859Z,88.58
2022-09-14T12:25:53.724Z,91.22
2022-09-14T12:28:28.510Z,92.18
2022-09-14T12:30:54.951Z,92.14
2022-09-14T12:33:31.028Z,91.45
2022-09-14T12:36:04.402Z,85.53
2022-09-14T12:38:30.745Z,89.30
2022-09-14T12:40:58.426Z,87.67
2022-09-14T12:43:37.121Z,89.19
2022-09-14T12:46:07.831Z,90.73
2022-09-14T12:48:46.582Z,83.74
2022-09-14T12:51:36.027Z,85.72
2022-09-14T12:54:09.251Z,83.95
2022-09-14T12:56:57.571Z,87.65
2022-09-14T13:00:00.883Z,85.20
2022-09-14T13:02:43.375Z,86.18
2022-09-14T13:05:17.079Z,85.26
2022-09-14T13:07:45.092Z,81.23
2022-09-14T13:10:26.730Z,80.94
2022-09-14T13:12:53.264Z,79.28
2022-09-14T13:15:27.370Z,84.56
2022-09-14T13:18:01.623Z,80.79
2022-09-14T13:20:30.325Z,83.40
2022-09-14T13:22:57.011Z,86.56
2022-09-14T13:25:32.903Z,88.49
2022-09-14T13:28:04.641Z,90.37
2022-09-14T13:30:33.796Z,89.66
2022-09-14T13:33:00.682Z,89.03
2022-09-14T13:35:36.613Z,88.52
2022-09-14T13:38:10.237Z,90.97
2022-09-14T13:40:37.325Z,88.30
2022-09-14T13:43:04.507Z,88.75
2022-09-14T13:45:31.665Z,93.12
2022-09-14T13:47:58.483Z,94.51
2022-09-14T13:50:27.988Z,93.01
2022-09-14T13:53:02.526Z,85.37
2022-09-14T13:55:33.134Z,87.07
2022-09-14T13:58:11.806Z,86.22
2022-09-14T14:00:53.606Z,85.24
2022-09-14T14:03:30.928Z,84.19
2022-09-14T14:05:58.776Z,79.41
2022-09-14T14:08:32.093Z,83.51
2022-09-14T14:11:02.009Z,83.41
2022-09-14T14:13:31.634Z,84.32
2022-09-14T14:16:20.678Z,85.58
2022-09-14T14:18:54.614Z,83.65
2022-09-14T14:21:27.586Z,88.07
2022-09-14T14:24:13.823Z,89.73
2022-09-14T14:26:48.870Z,90.40
2022-09-14T14:29:16.390Z,90.52
2022-09-14T14:31:43.262Z,89.66
2022-09-14T14:34:25.773Z,90.05
2022-09-14T14:36:52.983Z,87.63
2022-09-14T14:39:21.302Z,89.09
2022-09-14T14:41:48.622Z,89.11
2022-09-14T14:44:28.182Z,88.14
2022-09-14T14:46:55.511Z,89.83
2022-09-14T14:49:22.695Z,90.29
2022-09-14T14:51:49.867Z,87.62
2022-09-14T14:54:18.523Z,84.19
2022-09-14T14:56:50.976Z,86.67
2022-09-14T14:59:20.409Z,86.19
2022-09-14T15:01:51.918Z,90.33
2022-09-14T15:04:19.204Z,89.83
2022-09-14T15:06:46.852Z,91.85
2022-09-14T15:09:19.085Z,92.06
2022-09-14T15:11:46.184Z,93.67
2022-09-14T15:14:15.621Z,93.74
2022-09-14T15:16:43.222Z,90.79
2022-09-14T15:19:12.953Z,93.68
2022-09-14T15:21:41.288Z,93.13
2022-09-14T15:24:09.045Z,94.49
2022-09-14T15:26:36.479Z,97.37
2022-09-14T15:29:04.185Z,96.07
2022-09-14T15:31:30.723Z,96.67
2022-09-14T15:33:58.059Z,94.22
2022-09-14T15:36:47.542Z,91.69
2022-09-14T15:39:14.903Z,93.85
2022-09-14T15:41:42.580Z,93.60
2022-09-14T15:44:11.468Z,89.26
2022-09-14T15:46:39.079Z,93.57
2022-09-14T15:49:07.661Z,94.01
2022-09-14T15:51:34.286Z,90.51
2022-09-14T15:54:01.776Z,88.78
2022-09-14T15:56:28.361Z,92.86
2022-09-14T15:58:58.117Z,94.64
2022-09-14T16:01:24.738Z,95.94
2022-09-14T16:03:57.230Z,98.32
2022-09-14T16:06:23.869Z,95.21
2022-09-14T16:08:50.520Z,98.53
2022-09-14T16:11:16.991Z,98.20
2022-09-14T16:13:43.380Z,96.05
2022-09-14T16:16:12.399Z,97.74
2022-09-14T16:18:39.795Z,96.99
2022-09-14T16:21:16.858Z,96.60
2022-09-14T16:23:45.947Z,96.00
2022-09-14T16:26:15.434Z,95.79
2022-09-14T16:28:43.368Z,97.26
2022-09-14T16:31:21.949Z,97.34
2022-09-14T16:33:51.270Z,97.35
2022-09-14T16:36:20.764Z,98.51
2022-09-14T16:38:47.558Z,98.60
2022-09-14T16:41:15.175Z,96.65
2022-09-14T16:43:41.579Z,90.59
2022-09-14T16:46:16.025Z,91.22
2022-09-14T16:48:47.640Z,95.31
2022-09-14T16:51:15.151Z,96.63
2022-09-14T16:53:46.153Z,97.79
2022-09-14T16:56:15.268Z,98.04
2022-09-14T16:58:43.232Z,98.07
2022-09-14T17:01:24.131Z,97.88
2022-09-14T17:03:52.230Z,100.00
2022-09-14T17:06:21.659Z,99.34
2022-09-14T17:08:48.941Z,99.34
2022-09-14T17:11:17.029Z,99.43
2022-09-14T17:13:44.635Z,100.00
2022-09-14T17:16:15.911Z,100.00
2022-09-14T17:18:43.930Z,100.00
2022-09-14T17:21:21.907Z,100.00
2022-09-14T17:23:48.981Z,99.91
2022-09-14T17:26:18.494Z,100.00
2022-09-14T17:28:47.276Z,99.71
2022-09-14T17:31:15.900Z,99.46
2022-09-14T17:33:42.528Z,97.75
2022-09-14T17:36:09.990Z,97.37
2022-09-14T17:38:38.649Z,95.39
2022-09-14T17:41:11.354Z,94.91
2022-09-14T17:43:39.445Z,95.08
2022-09-14T17:46:07.316Z,95.04
2022-09-14T17:48:37.517Z,95.54
2022-09-14T17:51:08.617Z,95.68
2022-09-14T17:53:43.379Z,96.00
2022-09-14T17:56:12.179Z,96.03
2022-09-14T17:58:39.474Z,95.34
2022-09-14T18:01:09.100Z,96.22
2022-09-14T18:03:37.617Z,95.97
2022-09-14T18:06:06.177Z,95.82
2022-09-14T18:08:32.983Z,95.98
2022-09-14T18:11:08.446Z,96.48
2022-09-14T18:13:34.927Z,95.96
2022-09-14T18:16:01.968Z,92.89
2022-09-14T18:18:28.444Z,91.76
2022-09-14T18:20:54.847Z,92.66
2022-09-14T18:23:21.443Z,91.69
2022-09-14T18:25:47.956Z,91.83
2022-09-14T18:28:14.454Z,90.89
2022-09-14T18:30:43.665Z,92.63
2022-09-14T18:33:10.638Z,91.58
2022-09-14T18:35:37.990Z,91.76
2022-09-14T18:38:06.560Z,92.66
2022-09-14T18:40:34.550Z,93.95
2022-09-14T18:43:01.142Z,96.25
2022-09-14T18:45:27.645Z,96.60
2022-09-14T18:47:54.044Z,100.00
2022-09-14T18:50:22.950Z,100.00
2022-09-14T18:52:52.842Z,100.00
2022-09-14T18:55:19.486Z,100.00
2022-09-14T18:57:47.377Z,100.00
2022-09-14T19:00:18.502Z,100.00
2022-09-14T19:02:50.505Z,100.00
2022-09-14T19:05:17.051Z,100.00
2022-09-14T19:07:43.440Z,100.00
2022-09-14T19:10:11.758Z,100.00
2022-09-14T19:12:38.361Z,100.00
2022-09-14T19:15:05.338Z,100.00
2022-09-14T19:17:31.739Z,100.00
2022-09-14T19:19:58.254Z,100.00
2022-09-14T19:22:24.758Z,100.00
2022-09-14T19:24:51.380Z,100.00
2022-09-14T19:27:17.781Z,100.00
2022-09-14T19:29:44.185Z,100.00
2022-09-14T19:32:10.638Z,100.00
2022-09-14T19:34:38.454Z,100.00
2022-09-14T19:37:05.232Z,100.00
2022-09-14T19:39:31.627Z,100.00
2022-09-14T19:41:58.278Z,100.00
2022-09-14T19:44:24.734Z,100.00
2022-09-14T19:46:51.215Z,100.00
2022-09-14T19:49:20.927Z,100.00
2022-09-14T19:51:48.059Z,100.00
2022-09-14T19:54:14.922Z,100.00
2022-09-14T19:56:42.290Z,100.00
2022-09-14T19:59:09.323Z,100.00
2022-09-14T20:01:37.885Z,100.00
2022-09-14T20:04:05.983Z,100.00
2022-09-14T20:06:35.707Z,100.00
2022-09-14T20:09:05.683Z,100.00
2022-09-14T20:11:34.028Z,100.00
2022-09-14T20:14:02.302Z,100.00
2022-09-14T20:16:38.117Z,100.00
2022-09-14T20:19:16.937Z,100.00
2022-09-14T20:21:45.064Z,100.00
2022-09-14T20:24:18.470Z,100.00
2022-09-14T20:26:46.867Z,100.00
2022-09-14T20:29:14.243Z,100.00
2022-09-14T20:31:40.695Z,100.00
2022-09-14T20:34:07.097Z,100.00
2022-09-14T20:36:33.613Z,100.00
2022-09-14T20:39:00.842Z,100.00
2022-09-14T20:41:29.982Z,100.00
2022-09-14T20:43:56.868Z,100.00
2022-09-14T20:46:34.638Z,100.00
2022-09-14T20:49:02.352Z,100.00
2022-09-14T20:51:28.833Z,100.00
2022-09-14T20:53:58.311Z,100.00
2022-09-14T20:56:28.498Z,100.00
2022-09-14T20:58:58.221Z,100.00
2022-09-14T21:01:27.138Z,100.00
2022-09-14T21:03:54.542Z,100.00
2022-09-14T21:06:24.056Z,100.00
2022-09-14T21:08:51.217Z,100.00
2022-09-14T21:11:22.616Z,100.00
2022-09-14T21:13:50.987Z,100.00
2022-09-14T21:16:19.406Z,100.00
2022-09-14T21:18:48.123Z,100.00
2022-09-14T21:21:18.976Z,100.00
2022-09-14T21:23:48.268Z,100.00
2022-09-14T21:26:15.153Z,100.00
2022-09-14T21:28:41.871Z,100.00
2022-09-14T21:31:12.811Z,100.00
2022-09-14T21:33:41.344Z,100.00
2022-09-14T21:36:10.942Z,100.00
2022-09-14T21:38:38.157Z,100.00
2022-09-14T21:41:10.302Z,100.00
2022-09-14T21:43:38.618Z,100.00
2022-09-14T21:46:05.680Z,100.00
2022-09-14T21:48:32.541Z,100.00
2022-09-14T21:51:08.625Z,100.00
2022-09-14T21:53:35.353Z,100.00
2022-09-14T21:56:04.399Z,100.00
2022-09-14T21:58:31.145Z,100.00
2022-09-14T22:00:59.262Z,100.00
2022-09-14T22:03:26.592Z,100.00
2022-09-14T22:05:56.954Z,100.00
2022-09-14T22:08:23.749Z,100.00
2022-09-14T22:10:50.156Z,100.00
2022-09-14T22:13:16.936Z,100.00
2022-09-14T22:15:43.485Z,100.00
2022-09-14T22:18:09.913Z,100.00
2022-09-14T22:20:36.300Z,100.00
2022-09-14T22:23:03.110Z,100.00
2022-09-14T22:25:30.175Z,100.00
2022-09-14T22:27:56.582Z,100.00
2022-09-14T22:30:23.026Z,100.00
2022-09-14T22:32:49.415Z,100.00
2022-09-14T22:35:15.817Z,100.00
2022-09-14T22:37:42.199Z,100.00
2022-09-14T22:40:09.198Z,100.00
2022-09-14T22:42:37.072Z,100.00
2022-09-14T22:45:03.688Z,100.00
2022-09-14T22:47:30.066Z,100.00
2022-09-14T22:49:56.468Z,100.00
2022-09-14T22:52:23.856Z,100.00
2022-09-14T22:54:50.233Z,100.00
2022-09-14T22:57:16.645Z,100.00
2022-09-14T22:59:43.073Z,100.00
2022-09-14T23:02:09.535Z,100.00
2022-09-14T23:04:36.280Z,100.00
2022-09-14T23:07:04.155Z,100.00
2022-09-14T23:09:30.639Z,100.00
2022-09-14T23:11:57.020Z,100.00
2022-09-14T23:14:24.001Z,100.00
2022-09-14T23:16:50.488Z,100.00
2022-09-14T23:19:18.081Z,100.00
2022-09-14T23:21:46.226Z,100.00
2022-09-14T23:24:13.567Z,100.00
2022-09-14T23:26:40.398Z,100.00
2022-09-14T23:29:12.512Z,100.00
2022-09-14T23:31:38.884Z,100.00
2022-09-14T23:34:05.829Z,100.00
2022-09-14T23:36:33.035Z,100.00
2022-09-14T23:38:59.491Z,100.00
2022-09-14T23:41:26.992Z,100.00
2022-09-14T23:43:54.329Z,100.00
2022-09-14T23:46:21.406Z,100.00
2022-09-14T23:48:48.638Z,100.00
2022-09-14T23:51:15.930Z,100.00
2022-09-14T23:53:43.074Z,100.00
2022-09-14T23:56:10.373Z,100.00
2022-09-14T23:58:37.238Z,100.00
